Garoua International Airport

FKKR · North, Camerun

Storia di METAR FKKR · Garoua International Airport

Di seguito sono riportati i METAR degli ultimi giorni. Seleziona un anno per sfogliare i METAR più vecchi, dall'anno 2007 in poi.

1 marzo 2024

Tempo Codice Tempo meteorologico Temp. Vista Base nuvolosa Vento METAR/SPECI
22:00
V
30 °C 10 km+ - 320° 320° 2 kt METAR FKKR 012100Z 32002KT CAVOK 30/15 Q1008 NOSIG
21:00
V
33 °C 10 km+ - 270° 270° 5 kt METAR FKKR 012000Z 27005KT CAVOK 33/17 Q1007 NOSIG
15:00
V
41 °C 10 km+ - Var Var 3 kt METAR FKKR 011400Z VRB03KT CAVOK 41/11 Q1004 NOSIG
14:00
V
41 °C 10 km+ - Var Var 7 kt METAR FKKR 011300Z VRB07KT CAVOK 41/14 Q1005 NOSIG
13:00
V
40 °C 10 km+ - 260° 260° 6 kt METAR FKKR 011200Z 26006KT 180V320 CAVOK 40/15 Q1007 NOSIG
12:00
V
39 °C 10 km+ - 290° 290° 6 kt METAR FKKR 011100Z 29006KT 220V360 CAVOK 39/16 Q1009 NOSIG
11:00
V
38 °C 10 km+ - 290° 290° 10 kt METAR FKKR 011000Z 29010KT CAVOK 38/17 Q1009 NOSIG
10:00
V
36 °C 10 km+ - 270° 270° 11 kt METAR FKKR 010900Z 27011KT 230V300 CAVOK 36/22 Q1010 NOSIG
09:00
V
34 °C 10 km+ - 270° 270° 8 kt METAR FKKR 010800Z 27008KT 230V300 CAVOK 34/23 Q1010 NOSIG
08:00
V
32 °C 10 km+ - 280° 280° 8 kt METAR FKKR 010700Z 28008KT CAVOK 32/23 Q1010 NOSIG

29 febbraio 2024

Tempo Codice Tempo meteorologico Temp. Vista Base nuvolosa Vento METAR/SPECI
21:00
V
32 °C 10 km+ - 330° 330° 3 kt METAR FKKR 292000Z 33003KT CAVOK 32/08 Q1005 NOSIG
20:00
V
33 °C 10 km+ - 320° 320° 2 kt METAR FKKR 291900Z 32002KT CAVOK 33/09 Q1004 NOSIG
19:00
V
36 °C 10 km+ - 220° 220° 4 kt METAR FKKR 291800Z 22004KT CAVOK 36/08 Q1004 NOSIG
18:00
V
40 °C 10 km+ - 220° 220° 5 kt METAR FKKR 291700Z 22005KT CAVOK 40/08 Q1003 NOSIG
16:00
V
43 °C 10 km+ - 210° 210° 5 kt METAR FKKR 291500Z 21005KT 150V280 CAVOK 43/05 Q1003 NOSIG
15:00
V
43 °C 10 km+ - 230° 230° 4 kt METAR FKKR 291400Z 23004KT 160V280 CAVOK 43/05 Q1003 NOSIG
12:00
V
40 °C 10 km+ - Var Var 5 kt METAR FKKR 291100Z VRB05KT CAVOK 40/07 Q1007 NOSIG
11:00
V
39 °C 10 km+ - Var Var 4 kt METAR FKKR 291000Z VRB04KT CAVOK 39/08 Q1008 NOSIG
10:00
V
36 °C 10 km+ - 210° 210° 4 kt METAR FKKR 290900Z 21004KT 110V280 CAVOK 36/09 Q1008 NOSIG
09:00
V
34 °C 10 km+ - Var Var 2 kt METAR FKKR 290800Z VRB02KT CAVOK 34/09 Q1008 NOSIG
08:00
V
31 °C 10 km+ - Var Var 2 kt METAR FKKR 290700Z VRB02KT CAVOK 31/10 Q1007 NOSIG
00:00
V
29 °C 10 km+ - 320° 320° 2 kt METAR FKKR 282300Z 32002KT CAVOK 29/08 Q1007 NOSIG

28 febbraio 2024

Tempo Codice Tempo meteorologico Temp. Vista Base nuvolosa Vento METAR/SPECI
23:00
V
31 °C 10 km+ - 350° 350° 3 kt METAR FKKR 282200Z 35003KT CAVOK 31/09 Q1007 NOSIG
21:00
V
31 °C 10 km+ - 340° 340° 3 kt METAR FKKR 282000Z 34003KT CAVOK 31/10 Q1006 NOSIG
20:00
V
29 °C 10 km+ - 170° 170° 2 kt METAR FKKR 281900Z 17002KT CAVOK 29/08 Q1005 NOSIG
19:00
V
32 °C 10 km+ - 220° 220° 2 kt METAR FKKR 281800Z 22002KT CAVOK 32/08 Q1005 NOSIG
18:00
V
40 °C 10 km+ - 130° 130° 3 kt METAR FKKR 281700Z 13003KT CAVOK 40/06 Q1004 NOSIG
17:00
V
42 °C 10 km+ - Var Var 4 kt METAR FKKR 281600Z VRB04KT CAVOK 42/05 Q1004 NOSIG
14:00
V
42 °C 10 km+ - 140° 140° 6 kt METAR FKKR 281300Z 14006KT 080V190 CAVOK 42/05 Q1006 NOSIG
13:00
V
41 °C 10 km+ - 080° 080° 5 kt METAR FKKR 281200Z 08005KT 030V150 CAVOK 41/06 Q1007 NOSIG
12:00
V
40 °C 10 km+ - 020° 020° 4 kt METAR FKKR 281100Z 02004KT 310V110 CAVOK 40/06 Q1008 NOSIG
11:00
V
38 °C 10 km+ - Var Var 4 kt METAR FKKR 281000Z VRB04KT CAVOK 38/07 Q1010 NOSIG
10:00
V
37 °C 10 km+ - Var Var 3 kt METAR FKKR 280900Z VRB03KT CAVOK 37/09 Q1010 NOSIG
09:00
V
34 °C 10 km+ - Var Var 2 kt METAR FKKR 280800Z VRB02KT CAVOK 34/09 Q1010 NOSIG